createdAt,value
2017-09-29T00:00:13.668Z,94.07
2017-09-29T00:01:13.641Z,93.78
2017-09-29T00:02:13.620Z,94.07
2017-09-29T00:03:13.599Z,93.69
2017-09-29T00:04:13.270Z,94.17
2017-09-29T00:05:13.553Z,94.26
2017-09-29T00:06:13.541Z,94.26
2017-09-29T00:07:13.528Z,94.35
2017-09-29T00:08:13.501Z,94.55
2017-09-29T00:09:13.479Z,94.17
2017-09-29T00:10:13.454Z,94.45
2017-09-29T00:11:13.431Z,94.55
2017-09-29T00:12:13.408Z,94.07
2017-09-29T00:13:13.389Z,94.07
2017-09-29T00:14:13.369Z,94.07
2017-09-29T00:15:13.348Z,94.07
2017-09-29T00:16:13.326Z,94.07
2017-09-29T00:17:13.305Z,94.17
2017-09-29T00:18:13.286Z,94.45
2017-09-29T00:19:13.261Z,94.45
2017-09-29T00:20:13.244Z,94.55
2017-09-29T00:21:13.221Z,94.55
2017-09-29T00:22:13.204Z,94.45
2017-09-29T00:23:13.178Z,94.35
2017-09-29T00:24:13.155Z,94.21
2017-09-29T00:25:13.135Z,94.64
2017-09-29T00:26:13.117Z,94.74
2017-09-29T00:27:13.095Z,94.74
2017-09-29T00:28:13.074Z,94.45
2017-09-29T00:29:13.059Z,94.74
2017-09-29T00:30:13.027Z,94.45
2017-09-29T00:31:13.017Z,94.5
2017-09-29T00:32:12.989Z,94.74
2017-09-29T00:33:12.969Z,94.74
2017-09-29T00:34:12.640Z,95.03
2017-09-29T00:35:12.926Z,94.6
2017-09-29T00:36:12.903Z,94.79
2017-09-29T00:37:12.889Z,94.79
2017-09-29T00:38:12.861Z,94.74
2017-09-29T00:39:12.839Z,94.6
2017-09-29T00:40:12.817Z,94.69
2017-09-29T00:41:12.800Z,94.64
2017-09-29T00:42:12.775Z,94.6
2017-09-29T00:43:12.753Z,94.31
2017-09-29T00:44:12.734Z,94.69
2017-09-29T00:45:12.719Z,94.5
2017-09-29T00:46:12.695Z,94.69
2017-09-29T00:47:12.673Z,94.6
2017-09-29T00:48:12.650Z,94.12
2017-09-29T00:49:12.635Z,94.79
2017-09-29T00:50:12.617Z,94.89
2017-09-29T00:51:12.590Z,94.93
2017-09-29T00:52:12.564Z,94.79
2017-09-29T00:53:12.543Z,95.03
2017-09-29T00:54:12.528Z,94.89
2017-09-29T00:55:12.507Z,94.93
2017-09-29T00:56:12.482Z,94.69
2017-09-29T00:57:12.463Z,94.79
2017-09-29T00:58:12.439Z,94.69
2017-09-29T00:59:12.417Z,94.84
2017-09-29T01:00:12.401Z,94.79
2017-09-29T01:01:12.380Z,94.6
2017-09-29T01:02:12.359Z,95.03
2017-09-29T01:03:12.341Z,94.64
2017-09-29T01:04:12.362Z,95.03
2017-09-29T01:05:12.293Z,95.03
2017-09-29T01:06:12.267Z,94.93
2017-09-29T01:07:12.252Z,94.74
2017-09-29T01:08:12.227Z,94.74
2017-09-29T01:09:12.207Z,94.64
2017-09-29T01:10:12.183Z,94.64
2017-09-29T01:11:12.166Z,94.79
2017-09-29T01:12:12.141Z,94.6
2017-09-29T01:13:12.129Z,94.89
2017-09-29T01:14:12.095Z,95.03
2017-09-29T01:15:12.080Z,95.07
2017-09-29T01:16:12.058Z,94.79
2017-09-29T01:17:12.036Z,94.79
2017-09-29T01:18:12.013Z,94.98
2017-09-29T01:19:11.996Z,94.6
2017-09-29T01:20:11.971Z,95.07
2017-09-29T01:21:11.953Z,95.22
2017-09-29T01:22:11.936Z,94.98
2017-09-29T01:23:11.913Z,95.12
2017-09-29T01:24:11.891Z,94.69
2017-09-29T01:25:11.868Z,94.98
2017-09-29T01:26:11.849Z,95.03
2017-09-29T01:27:11.832Z,95.03
2017-09-29T01:28:11.802Z,94.98
2017-09-29T01:29:11.783Z,94.98
2017-09-29T01:30:11.763Z,95.12
2017-09-29T01:31:11.742Z,94.89
2017-09-29T01:32:11.412Z,94.79
2017-09-29T01:33:11.701Z,95.56
2017-09-29T01:34:11.688Z,94.84
2017-09-29T01:35:11.711Z,94.89
2017-09-29T01:36:11.637Z,95.46
2017-09-29T01:37:11.616Z,95.56
2017-09-29T01:38:11.603Z,95.56
2017-09-29T01:39:11.577Z,95.7
2017-09-29T01:40:11.554Z,95.89
2017-09-29T01:41:11.547Z,95.56
2017-09-29T01:42:11.507Z,95.51
2017-09-29T01:43:11.490Z,95.6
2017-09-29T01:44:11.477Z,95.56
2017-09-29T01:45:11.446Z,95.89
2017-09-29T01:46:11.424Z,95.6
2017-09-29T01:47:11.401Z,95.7
2017-09-29T01:48:11.384Z,95.79
2017-09-29T01:49:11.424Z,95.89
2017-09-29T01:50:11.343Z,95.6
2017-09-29T01:51:11.316Z,95.89
2017-09-29T01:52:11.298Z,95.7
2017-09-29T01:53:11.280Z,95.79
2017-09-29T01:54:11.254Z,95.79
2017-09-29T01:55:11.237Z,95.22
2017-09-29T01:56:11.266Z,95.41
2017-09-29T01:57:10.884Z,95.6
2017-09-29T01:58:11.169Z,95.6
2017-09-29T01:59:11.148Z,95.51
2017-09-29T02:00:10.871Z,95.31
2017-09-29T02:01:11.114Z,95.31
2017-09-29T02:02:11.091Z,95.41
2017-09-29T02:03:11.070Z,95.41
2017-09-29T02:04:11.046Z,95.41
2017-09-29T02:05:11.025Z,95.56
2017-09-29T02:06:11.002Z,95.56
2017-09-29T02:07:10.982Z,95.41
2017-09-29T02:08:10.964Z,95.6
2017-09-29T02:09:10.939Z,95.41
2017-09-29T02:10:10.919Z,95.36
2017-09-29T02:11:10.899Z,95.36
2017-09-29T02:12:10.874Z,95.36
2017-09-29T02:13:10.854Z,95.27
2017-09-29T02:14:10.834Z,95.07
2017-09-29T02:15:10.815Z,95.27
2017-09-29T02:16:10.485Z,95.27
2017-09-29T02:17:10.768Z,95.07
2017-09-29T02:18:10.753Z,95.31
2017-09-29T02:19:10.725Z,95.46
2017-09-29T02:20:10.714Z,95.17
2017-09-29T02:21:10.683Z,95.36
2017-09-29T02:22:10.662Z,95.31
2017-09-29T02:23:10.639Z,95.41
2017-09-29T02:24:10.620Z,95.65
2017-09-29T02:25:10.607Z,95.6
2017-09-29T02:26:10.579Z,95.36
2017-09-29T02:27:10.554Z,95.27
2017-09-29T02:28:10.534Z,95.46
2017-09-29T02:29:10.515Z,95.36
2017-09-29T02:30:10.492Z,95.36
2017-09-29T02:31:10.469Z,95.46
2017-09-29T02:32:10.452Z,95.65
2017-09-29T02:33:10.433Z,95.65
2017-09-29T02:34:10.409Z,95.7
2017-09-29T02:35:10.391Z,95.51
2017-09-29T02:36:10.367Z,95.56
2017-09-29T02:37:10.345Z,95.51
2017-09-29T02:38:10.326Z,95.65
2017-09-29T02:39:10.319Z,95.51
2017-09-29T02:40:10.289Z,95.46
2017-09-29T02:41:10.266Z,95.65
2017-09-29T02:42:10.239Z,95.46
2017-09-29T02:43:10.222Z,95.51
2017-09-29T02:44:09.893Z,95.65
2017-09-29T02:45:10.174Z,95.36
2017-09-29T02:46:10.162Z,95.7
2017-09-29T02:47:10.130Z,95.7
2017-09-29T02:48:10.114Z,95.41
2017-09-29T02:49:10.091Z,95.36
2017-09-29T02:50:10.077Z,95.51
2017-09-29T02:51:10.049Z,95.7
2017-09-29T02:52:10.029Z,95.31
2017-09-29T02:53:10.008Z,95.22
2017-09-29T02:54:09.985Z,95.6
2017-09-29T02:55:09.970Z,95.31
2017-09-29T02:56:09.942Z,95.22
2017-09-29T02:57:09.923Z,95.31
2017-09-29T02:58:09.904Z,95.12
2017-09-29T02:59:09.881Z,95.12
2017-09-29T03:00:09.909Z,95.12
2017-09-29T03:01:09.838Z,95.22
2017-09-29T03:02:09.819Z,95.31
2017-09-29T03:03:09.794Z,95.6
2017-09-29T03:04:09.467Z,95.6
2017-09-29T03:05:09.757Z,95.6
2017-09-29T03:06:09.734Z,95.41
2017-09-29T03:07:09.709Z,95.41
2017-09-29T03:08:09.694Z,95.6
2017-09-29T03:09:09.670Z,95.6
2017-09-29T03:10:09.649Z,95.6
2017-09-29T03:11:09.632Z,95.6
2017-09-29T03:12:09.612Z,95.6
2017-09-29T03:13:09.587Z,95.6
2017-09-29T03:14:09.566Z,95.6
2017-09-29T03:15:09.546Z,95.41
2017-09-29T03:16:09.525Z,95.6
2017-09-29T03:17:09.245Z,95.41
2017-09-29T03:18:09.857Z,95.31
2017-09-29T03:19:09.458Z,95.41
2017-09-29T03:20:09.439Z,95.31
2017-09-29T03:21:09.416Z,95.31
2017-09-29T03:22:09.393Z,95.41
2017-09-29T03:23:09.375Z,95.41
2017-09-29T03:24:09.354Z,95.41
2017-09-29T03:25:09.333Z,95.22
2017-09-29T03:26:09.311Z,95.22
2017-09-29T03:27:09.291Z,95.79
2017-09-29T03:28:09.269Z,95.6
2017-09-29T03:29:09.252Z,95.79
2017-09-29T03:30:09.229Z,95.6
2017-09-29T03:31:09.209Z,95.7
2017-09-29T03:32:09.186Z,95.41
2017-09-29T03:33:09.163Z,95.79
2017-09-29T03:34:09.140Z,95.6
2017-09-29T03:35:09.129Z,95.7
2017-09-29T03:36:09.101Z,95.7
2017-09-29T03:37:09.078Z,95.41
2017-09-29T03:38:09.057Z,95.41
2017-09-29T03:39:09.036Z,95.6
2017-09-29T03:40:09.014Z,95.41
2017-09-29T03:41:08.993Z,95.22
2017-09-29T03:42:08.973Z,95.51
2017-09-29T03:43:08.951Z,95.22
2017-09-29T03:44:08.932Z,95.41
2017-09-29T03:45:08.913Z,95.22
2017-09-29T03:46:08.892Z,95.31
2017-09-29T03:47:08.864Z,95.31
2017-09-29T03:48:08.847Z,95.6
2017-09-29T03:49:08.832Z,95.6
2017-09-29T03:50:08.806Z,95.41
2017-09-29T03:51:08.782Z,95.51
2017-09-29T03:52:08.452Z,95.03
2017-09-29T03:53:08.742Z,95.6
2017-09-29T03:54:08.717Z,95.7
2017-09-29T03:55:08.701Z,95.51
2017-09-29T03:56:08.675Z,95.51
2017-09-29T03:57:08.656Z,95.6
2017-09-29T03:58:08.633Z,95.41
2017-09-29T03:59:08.622Z,95.31
2017-09-29T04:00:08.592Z,95.41
2017-09-29T04:01:08.567Z,95.22
2017-09-29T04:02:08.544Z,95.41
2017-09-29T04:03:08.534Z,95.31
2017-09-29T04:04:08.507Z,95.89
2017-09-29T04:05:08.485Z,96.08
2017-09-29T04:06:08.464Z,95.98
2017-09-29T04:07:08.443Z,95.79
2017-09-29T04:08:08.422Z,95.79
2017-09-29T04:09:08.400Z,95.6
2017-09-29T04:10:08.379Z,95.41
2017-09-29T04:11:08.359Z,95.79
2017-09-29T04:12:08.337Z,95.89
2017-09-29T04:13:08.315Z,95.98
2017-09-29T04:14:08.294Z,95.98
2017-09-29T04:15:08.272Z,95.98
2017-09-29T04:16:08.251Z,95.89
2017-09-29T04:17:08.232Z,95.6
2017-09-29T04:18:08.210Z,95.6
2017-09-29T04:19:08.189Z,95.79
2017-09-29T04:20:08.166Z,95.51
2017-09-29T04:21:08.147Z,95.6
2017-09-29T04:22:08.126Z,95.79
2017-09-29T04:23:08.156Z,95.79
2017-09-29T04:24:08.079Z,95.98
2017-09-29T04:25:08.064Z,95.51
2017-09-29T04:26:08.045Z,96.56
2017-09-29T04:27:08.022Z,96.56
2017-09-29T04:28:08.003Z,96.18
2017-09-29T04:29:07.981Z,96.37
2017-09-29T04:30:07.958Z,96.27
2017-09-29T04:31:07.624Z,96.08
2017-09-29T04:32:07.912Z,96.08
2017-09-29T04:33:07.894Z,96.27
2017-09-29T04:34:07.869Z,96.37
2017-09-29T04:35:07.849Z,95.89
2017-09-29T04:36:07.839Z,96.08
2017-09-29T04:37:07.808Z,96.18
2017-09-29T04:38:07.786Z,96.18
2017-09-29T04:39:07.457Z,96.18
2017-09-29T04:40:07.748Z,96.27
2017-09-29T04:41:07.725Z,96.18
2017-09-29T04:42:07.701Z,96.37
2017-09-29T04:43:07.682Z,96.37
2017-09-29T04:44:07.661Z,96.18
2017-09-29T04:45:07.638Z,96.47
2017-09-29T04:46:07.623Z,96.18
2017-09-29T04:47:07.606Z,96.18
2017-09-29T04:48:07.626Z,96.18
2017-09-29T04:49:07.555Z,96.47
2017-09-29T04:50:07.533Z,96.08
2017-09-29T04:51:07.507Z,96.18
2017-09-29T04:52:07.494Z,96.18
2017-09-29T04:53:07.470Z,96.08
2017-09-29T04:54:07.450Z,96.37
2017-09-29T04:55:07.434Z,96.27
2017-09-29T04:56:07.403Z,96.56
2017-09-29T04:57:07.389Z,96.37
2017-09-29T04:58:07.423Z,96.47
2017-09-29T04:59:07.033Z,96.56
2017-09-29T05:00:07.326Z,96.37
2017-09-29T05:01:07.300Z,96.37
2017-09-29T05:02:07.283Z,96.37
2017-09-29T05:03:07.258Z,96.27
2017-09-29T05:04:07.249Z,96.37
2017-09-29T05:05:07.215Z,96.66
2017-09-29T05:06:07.224Z,96.47
2017-09-29T05:07:07.227Z,96.56
2017-09-29T05:08:07.156Z,96.27
2017-09-29T05:09:07.130Z,96.56
2017-09-29T05:10:07.113Z,96.94
2017-09-29T05:11:07.088Z,96.94
2017-09-29T05:12:07.067Z,96.47
2017-09-29T05:13:07.046Z,97.04
2017-09-29T05:14:07.029Z,96.47
2017-09-29T05:15:07.023Z,96.94
2017-09-29T05:16:06.983Z,96.94
2017-09-29T05:17:06.969Z,96.75
2017-09-29T05:18:06.942Z,97.04
2017-09-29T05:19:06.922Z,97.04
2017-09-29T05:20:06.901Z,96.94
2017-09-29T05:21:06.880Z,96.66
2017-09-29T05:22:06.859Z,96.84
2017-09-29T05:23:06.844Z,97.04
2017-09-29T05:24:06.819Z,96.84
2017-09-29T05:25:06.797Z,96.84
2017-09-29T05:26:06.772Z,96.84
2017-09-29T05:27:06.761Z,96.84
2017-09-29T05:28:06.733Z,96.94
2017-09-29T05:29:06.708Z,97.14
2017-09-29T05:30:06.681Z,97.23
2017-09-29T05:31:06.666Z,96.94
2017-09-29T05:32:06.643Z,97.14
2017-09-29T05:33:06.624Z,96.94
2017-09-29T05:34:06.602Z,97.14
2017-09-29T05:35:06.586Z,96.84
2017-09-29T05:36:06.562Z,97.14
2017-09-29T05:37:06.539Z,97.14
2017-09-29T05:38:06.516Z,97.23
2017-09-29T05:39:06.498Z,97.28
2017-09-29T05:40:06.477Z,97.18
2017-09-29T05:41:06.456Z,97.14
2017-09-29T05:42:06.436Z,96.99
2017-09-29T05:43:06.416Z,97.09
2017-09-29T05:44:06.400Z,96.89
2017-09-29T05:45:06.372Z,97.28
2017-09-29T05:46:06.360Z,97.23
2017-09-29T05:47:06.329Z,97.04
2017-09-29T05:48:06.315Z,96.56
2017-09-29T05:49:06.294Z,96.7
2017-09-29T05:50:06.266Z,96.89
2017-09-29T05:51:06.244Z,96.89
2017-09-29T05:52:06.237Z,96.66
2017-09-29T05:53:06.200Z,96.89
2017-09-29T05:54:06.179Z,97.04
2017-09-29T05:55:06.214Z,96.61
2017-09-29T05:56:06.142Z,96.84
2017-09-29T05:57:06.117Z,96.56
2017-09-29T05:58:06.102Z,96.61
2017-09-29T05:59:06.076Z,97.09
2017-09-29T06:00:06.058Z,96.8
2017-09-29T06:01:06.086Z,96.8
2017-09-29T06:02:06.009Z,96.61
2017-09-29T06:03:05.992Z,96.89
2017-09-29T06:04:05.971Z,96.89
2017-09-29T06:05:05.950Z,96.51
2017-09-29T06:06:05.931Z,96.61
2017-09-29T06:07:05.911Z,96.61
2017-09-29T06:08:05.881Z,97.18
2017-09-29T06:09:05.864Z,97.18
2017-09-29T06:10:05.845Z,96.8
2017-09-29T06:11:05.878Z,96.89
2017-09-29T06:12:05.804Z,96.7
2017-09-29T06:13:05.781Z,96.89
2017-09-29T06:14:05.760Z,97.09
2017-09-29T06:15:05.740Z,97.56
2017-09-29T06:16:05.718Z,96.99
2017-09-29T06:17:05.697Z,96.99
2017-09-29T06:18:05.374Z,96.89
2017-09-29T06:19:05.654Z,97.18
2017-09-29T06:20:05.637Z,96.89
2017-09-29T06:21:05.612Z,97.09
2017-09-29T06:22:05.593Z,96.8
2017-09-29T06:23:05.570Z,97.47
2017-09-29T06:24:05.553Z,96.89
2017-09-29T06:25:05.539Z,96.61
2017-09-29T06:26:05.506Z,96.7
2017-09-29T06:27:05.492Z,96.7
2017-09-29T06:28:05.467Z,96.89
2017-09-29T06:29:05.444Z,96.89
2017-09-29T06:30:05.423Z,96.51
2017-09-29T06:31:05.407Z,96.61
2017-09-29T06:32:05.433Z,96.51
2017-09-29T06:33:05.361Z,96.51
2017-09-29T06:34:05.341Z,96.7
2017-09-29T06:35:05.323Z,96.94
2017-09-29T06:36:05.293Z,96.7
2017-09-29T06:37:05.279Z,96.89
2017-09-29T06:38:05.256Z,96.89
2017-09-29T06:39:05.236Z,96.89
2017-09-29T06:40:05.213Z,96.99
2017-09-29T06:41:05.201Z,96.99
2017-09-29T06:42:05.179Z,96.42
2017-09-29T06:43:05.154Z,96.99
2017-09-29T06:44:05.131Z,96.8
2017-09-29T06:45:05.112Z,96.8
2017-09-29T06:46:04.785Z,96.94
2017-09-29T06:47:05.067Z,96.99
2017-09-29T06:48:05.052Z,96.89
2017-09-29T06:49:05.027Z,96.89
2017-09-29T06:50:05.006Z,96.99
2017-09-29T06:51:04.982Z,96.99
2017-09-29T06:52:04.961Z,96.89
2017-09-29T06:53:04.952Z,96.7
2017-09-29T06:54:04.919Z,96.7
2017-09-29T06:55:04.897Z,96.85
2017-09-29T06:56:04.878Z,96.85
2017-09-29T06:57:04.861Z,96.94
2017-09-29T06:58:04.836Z,96.94
2017-09-29T06:59:04.814Z,96.85
2017-09-29T07:00:04.795Z,96.94
2017-09-29T07:01:04.772Z,97.14
2017-09-29T07:02:04.753Z,96.27
2017-09-29T07:03:04.735Z,96.47
2017-09-29T07:04:04.710Z,96.37
2017-09-29T07:05:04.689Z,96.37
2017-09-29T07:06:04.698Z,96.47
2017-09-29T07:07:04.651Z,95.98
2017-09-29T07:08:04.630Z,96.27
2017-09-29T07:09:04.610Z,95.98
2017-09-29T07:10:04.586Z,96.37
2017-09-29T07:11:04.568Z,96.08
2017-09-29T07:12:04.544Z,96.18
2017-09-29T07:13:04.525Z,96.08
2017-09-29T07:14:04.520Z,96.13
2017-09-29T07:15:04.484Z,96.27
2017-09-29T07:16:04.473Z,95.89
2017-09-29T07:17:04.438Z,95.89
2017-09-29T07:18:04.424Z,95.89
2017-09-29T07:19:04.406Z,95.79
2017-09-29T07:20:04.381Z,95.75
2017-09-29T07:21:04.357Z,96.08
2017-09-29T07:22:04.341Z,95.84
2017-09-29T07:23:04.320Z,95.31
2017-09-29T07:24:04.313Z,95.6
2017-09-29T07:25:04.284Z,95.36
2017-09-29T07:26:04.263Z,95.21
2017-09-29T07:27:04.236Z,95.6
2017-09-29T07:28:04.220Z,95.26
2017-09-29T07:29:04.188Z,95.36
2017-09-29T07:30:04.172Z,95.46
2017-09-29T07:31:04.157Z,95.26
2017-09-29T07:32:03.834Z,95.26
2017-09-29T07:33:04.119Z,95.17
2017-09-29T07:34:03.791Z,95.36
2017-09-29T07:35:04.120Z,95.46
2017-09-29T07:36:03.743Z,95.36
2017-09-29T07:37:04.032Z,95.46
2017-09-29T07:38:04.014Z,94.79
2017-09-29T07:39:03.679Z,94.98
2017-09-29T07:40:03.970Z,94.98
2017-09-29T07:41:03.945Z,95.26
2017-09-29T07:42:03.931Z,94.79
2017-09-29T07:43:03.912Z,95.17
2017-09-29T07:44:03.890Z,94.59
2017-09-29T07:45:03.868Z,94.69
2017-09-29T07:46:03.903Z,94.88
2017-09-29T07:47:03.825Z,94.88
2017-09-29T07:48:03.813Z,94.69
2017-09-29T07:49:03.786Z,94.31
2017-09-29T07:50:03.768Z,94.31
2017-09-29T07:51:03.739Z,94.4
2017-09-29T07:52:03.727Z,94.4
2017-09-29T07:53:03.706Z,94.49
2017-09-29T07:54:03.684Z,94.49
2017-09-29T07:55:03.355Z,94.21
2017-09-29T07:56:03.642Z,94.4
2017-09-29T07:57:03.621Z,94.69
2017-09-29T07:58:03.607Z,94.4
2017-09-29T07:59:03.577Z,94.31
2017-09-29T08:00:03.613Z,94.21
2017-09-29T08:01:03.232Z,94.74
2017-09-29T08:02:03.527Z,94.54
2017-09-29T08:03:03.496Z,93.77
2017-09-29T08:04:03.479Z,94.07
2017-09-29T08:05:03.458Z,93.97
2017-09-29T08:06:03.435Z,93.97
2017-09-29T08:07:03.415Z,94.26
2017-09-29T08:08:03.399Z,94.16
2017-09-29T08:09:03.378Z,93.68
2017-09-29T08:10:03.357Z,94.16
2017-09-29T08:11:03.338Z,93.87
2017-09-29T08:12:03.021Z,93.97
2017-09-29T08:13:03.298Z,93.77
2017-09-29T08:14:03.274Z,93.59
2017-09-29T08:15:03.255Z,93.68
2017-09-29T08:16:03.241Z,93.59
2017-09-29T08:17:03.221Z,93.59
2017-09-29T08:18:03.192Z,93.73
2017-09-29T08:19:03.198Z,93.87
2017-09-29T08:20:03.172Z,93.87
2017-09-29T08:21:03.139Z,93.68
2017-09-29T08:22:03.116Z,93.97
2017-09-29T08:23:03.092Z,93.87
2017-09-29T08:24:03.076Z,93.97
2017-09-29T08:25:03.055Z,93.97
2017-09-29T08:26:03.033Z,93.87
2017-09-29T08:27:03.014Z,93.68
2017-09-29T08:28:02.991Z,93.39
2017-09-29T08:29:02.974Z,93.77
2017-09-29T08:30:02.948Z,93.39
2017-09-29T08:31:02.935Z,93.3
2017-09-29T08:32:02.914Z,93.39
2017-09-29T08:33:02.905Z,93.39
2017-09-29T08:34:02.877Z,93.63
2017-09-29T08:35:02.856Z,93.44
2017-09-29T08:36:02.838Z,93.73
2017-09-29T08:37:02.812Z,93.63
2017-09-29T08:38:02.795Z,93.05
2017-09-29T08:39:02.785Z,93.15
2017-09-29T08:40:02.769Z,93.34
2017-09-29T08:41:02.450Z,93.63
2017-09-29T08:42:02.727Z,93.63
2017-09-29T08:43:02.736Z,93.63
2017-09-29T08:44:02.671Z,92.96
2017-09-29T08:45:02.685Z,92.96
2017-09-29T08:46:02.670Z,93.05
2017-09-29T08:47:02.616Z,93.25
2017-09-29T08:48:02.595Z,93.05
2017-09-29T08:49:02.577Z,93.15
2017-09-29T08:50:02.553Z,93.25
2017-09-29T08:51:02.526Z,93.25
2017-09-29T08:52:02.509Z,93.44
2017-09-29T08:53:02.547Z,93.44
2017-09-29T08:54:02.471Z,93.34
2017-09-29T08:55:02.463Z,93.15
2017-09-29T08:56:02.480Z,93.15
2017-09-29T08:57:02.412Z,92.67
2017-09-29T08:58:02.392Z,92.72
2017-09-29T08:59:02.393Z,92.91
2017-09-29T09:00:02.370Z,92.91
2017-09-29T09:01:02.337Z,92.86
2017-09-29T09:02:02.317Z,92.52
2017-09-29T09:03:02.297Z,92.47
2017-09-29T09:04:02.278Z,92.57
2017-09-29T09:05:02.265Z,92.76
2017-09-29T09:06:02.301Z,92.57
2017-09-29T09:07:02.219Z,92.38
2017-09-29T09:08:02.209Z,92.57
2017-09-29T09:09:02.183Z,92.13
2017-09-29T09:10:02.174Z,92.61
2017-09-29T09:11:02.141Z,92.33
2017-09-29T09:12:02.125Z,92.61
2017-09-29T09:13:02.156Z,92.61
2017-09-29T09:14:02.081Z,93.1
2017-09-29T09:15:02.064Z,93
2017-09-29T09:16:01.736Z,92.52
2017-09-29T09:17:02.045Z,92.71
2017-09-29T09:18:02.007Z,92.18
2017-09-29T09:19:01.993Z,92.47
2017-09-29T09:20:01.663Z,92.47
2017-09-29T09:21:01.953Z,92.28
2017-09-29T09:22:01.933Z,92.28
2017-09-29T09:23:01.910Z,92.47
2017-09-29T09:24:01.890Z,92.18
2017-09-29T09:25:01.884Z,92.22
2017-09-29T09:26:01.858Z,92.52
2017-09-29T09:27:01.839Z,92.32
2017-09-29T09:28:01.821Z,92.47
2017-09-29T09:29:01.800Z,92.18
2017-09-29T09:30:01.789Z,91.99
2017-09-29T09:31:01.764Z,92.13
2017-09-29T09:32:01.749Z,92.22
2017-09-29T09:33:01.728Z,92.13
2017-09-29T09:34:01.710Z,92.22
2017-09-29T09:35:01.695Z,91.74
2017-09-29T09:36:01.690Z,91.74
2017-09-29T09:37:01.666Z,92.61
2017-09-29T09:38:01.654Z,91.74
2017-09-29T09:39:01.628Z,91.83
2017-09-29T09:40:01.609Z,91.93
2017-09-29T09:41:01.290Z,92.03
2017-09-29T09:42:01.601Z,91.83
2017-09-29T09:43:01.565Z,92.03
2017-09-29T09:44:01.529Z,91.99
2017-09-29T09:45:01.522Z,92.13
2017-09-29T09:46:01.505Z,91.79
2017-09-29T09:47:01.180Z,91.79
2017-09-29T09:48:01.464Z,91.79
2017-09-29T09:49:01.821Z,91.79
2017-09-29T09:50:01.430Z,91.79
2017-09-29T09:51:01.411Z,91.79
2017-09-29T09:52:01.391Z,91.89
2017-09-29T09:53:01.373Z,91.89
2017-09-29T09:54:01.362Z,91.6
2017-09-29T09:55:01.338Z,92.08
2017-09-29T09:56:01.320Z,92.27
2017-09-29T09:57:01.352Z,91.79
2017-09-29T09:58:01.283Z,91.89
2017-09-29T09:59:01.265Z,91.89
2017-09-29T10:00:00.941Z,92.08
2017-09-29T10:01:01.228Z,91.99
2017-09-29T10:02:01.267Z,91.99
2017-09-29T10:03:01.194Z,91.89
2017-09-29T10:04:01.174Z,91.99
2017-09-29T10:05:01.202Z,91.99
2017-09-29T10:06:01.146Z,91.99
2017-09-29T10:07:01.123Z,92.03
2017-09-29T10:08:01.146Z,91.94
2017-09-29T10:09:00.779Z,92.03
2017-09-29T10:10:01.071Z,91.65
2017-09-29T10:11:01.050Z,91.7
2017-09-29T10:12:01.033Z,91.6
2017-09-29T10:13:01.062Z,91.75
2017-09-29T10:14:00.993Z,92.08
2017-09-29T10:15:01.026Z,91.99
2017-09-29T10:16:00.957Z,92.08
2017-09-29T10:17:00.935Z,92.08
2017-09-29T10:18:00.923Z,91.84
2017-09-29T10:19:00.901Z,91.65
2017-09-29T10:20:00.881Z,91.94
2017-09-29T10:21:00.866Z,91.84
2017-09-29T10:22:00.843Z,92.03
2017-09-29T10:23:00.825Z,92.18
2017-09-29T10:24:00.807Z,91.5
2017-09-29T10:25:00.790Z,91.69
2017-09-29T10:26:00.768Z,91.21
2017-09-29T10:27:00.749Z,90.92
2017-09-29T10:28:00.784Z,91.02
2017-09-29T10:29:00.719Z,91.02
2017-09-29T10:30:00.691Z,91.16
2017-09-29T10:31:00.679Z,91.06
2017-09-29T10:32:00.665Z,90.97
2017-09-29T10:33:00.645Z,91.31
2017-09-29T10:34:00.624Z,91.06
2017-09-29T10:35:00.605Z,90.83
2017-09-29T10:36:00.590Z,91.16
2017-09-29T10:37:00.573Z,91.16
2017-09-29T10:38:00.551Z,91.31
2017-09-29T10:39:00.565Z,91.31
2017-09-29T10:40:00.513Z,90.92
2017-09-29T10:41:00.500Z,91.02
2017-09-29T10:42:00.482Z,91.45
2017-09-29T10:43:00.459Z,91.36
2017-09-29T10:44:00.440Z,91.06
2017-09-29T10:45:00.426Z,91.26
2017-09-29T10:46:00.406Z,91.16
2017-09-29T10:47:00.392Z,91.02
2017-09-29T10:48:00.371Z,90.92
2017-09-29T10:49:00.351Z,91.16
2017-09-29T10:50:00.337Z,90.97
2017-09-29T10:51:00.334Z,91.26
2017-09-29T10:52:00.297Z,91.16
2017-09-29T10:53:00.288Z,91.06
2017-09-29T10:54:00.272Z,91.36
2017-09-29T10:55:00.248Z,91.06
2017-09-29T10:56:00.229Z,91.26
2017-09-29T10:57:00.222Z,91.16
2017-09-29T10:57:59.886Z,91.16
2017-09-29T10:59:00.174Z,90.78
2017-09-29T11:00:00.163Z,91.26
2017-09-29T11:01:00.137Z,91.21
2017-09-29T11:02:00.121Z,91.12
2017-09-29T11:03:00.101Z,91.12
2017-09-29T11:03:59.786Z,90.92
2017-09-29T11:05:00.067Z,90.92
2017-09-29T11:06:00.053Z,91.21
2017-09-29T11:07:00.028Z,91.02
2017-09-29T11:08:00.056Z,91.31
2017-09-29T11:08:59.990Z,90.92
2017-09-29T11:09:59.980Z,90.78
2017-09-29T11:10:59.971Z,90.88
2017-09-29T11:11:59.985Z,90.68
2017-09-29T11:12:59.922Z,90.78
2017-09-29T11:13:59.968Z,90.88
2017-09-29T11:14:59.898Z,90.2
2017-09-29T11:15:59.885Z,90.68
2017-09-29T11:16:59.863Z,90.48
2017-09-29T11:17:59.823Z,90.1
2017-09-29T11:18:59.814Z,90.58
2017-09-29T11:19:59.805Z,90.34
2017-09-29T11:20:59.767Z,90
2017-09-29T11:21:59.756Z,90.44
2017-09-29T11:22:59.744Z,90.05
2017-09-29T11:23:59.785Z,90.24
2017-09-29T11:24:59.708Z,89.95
2017-09-29T11:25:59.689Z,90.24
2017-09-29T11:26:59.717Z,90.24
2017-09-29T11:27:59.647Z,89.86
2017-09-29T11:28:59.643Z,90
2017-09-29T11:29:59.611Z,89.95
2017-09-29T11:30:59.594Z,89.95
2017-09-29T11:31:59.574Z,89.76
2017-09-29T11:32:59.569Z,89.95
2017-09-29T11:33:59.538Z,90.15
2017-09-29T11:34:59.533Z,90.15
2017-09-29T11:35:59.497Z,90.05
2017-09-29T11:36:59.498Z,90.1
2017-09-29T11:37:59.491Z,90.39
2017-09-29T11:38:59.555Z,90.58
2017-09-29T11:39:59.544Z,89.81
2017-09-29T11:40:59.411Z,89.91
2017-09-29T11:41:59.395Z,90.2
2017-09-29T11:42:59.378Z,90.1
2017-09-29T11:43:59.359Z,89.72
2017-09-29T11:44:59.351Z,89.81
2017-09-29T11:45:59.327Z,89.72
2017-09-29T11:46:59.302Z,89.62
2017-09-29T11:47:59.285Z,89.81
2017-09-29T11:48:59.270Z,89.81
2017-09-29T11:49:59.248Z,89.72
2017-09-29T11:50:59.229Z,89.72
2017-09-29T11:51:59.218Z,89.72
2017-09-29T11:52:59.188Z,89.96
2017-09-29T11:53:59.176Z,89.77
2017-09-29T11:54:59.168Z,90.16
2017-09-29T11:55:59.136Z,90.06
2017-09-29T11:56:59.117Z,89.91
2017-09-29T11:57:59.103Z,90.3
2017-09-29T11:58:59.081Z,90.16
2017-09-29T11:59:59.064Z,89.96
2017-09-29T12:00:58.747Z,89.91
2017-09-29T12:01:59.028Z,89.96
2017-09-29T12:02:59.012Z,90.25
2017-09-29T12:03:58.984Z,89.86
2017-09-29T12:04:58.969Z,90
2017-09-29T12:05:58.962Z,90.2
2017-09-29T12:06:58.629Z,90.16
2017-09-29T12:07:58.923Z,90.16
2017-09-29T12:08:58.899Z,90.25
2017-09-29T12:09:59.584Z,90.16
2017-09-29T12:10:58.856Z,90.34
2017-09-29T12:11:58.842Z,89.77
2017-09-29T12:12:58.822Z,89.77
2017-09-29T12:13:58.807Z,90.34
2017-09-29T12:14:58.784Z,90.25
2017-09-29T12:15:58.769Z,90.34
2017-09-29T12:16:58.749Z,90.16
2017-09-29T12:17:58.733Z,90.16
2017-09-29T12:18:58.711Z,90
2017-09-29T12:19:58.700Z,89.77
2017-09-29T12:20:58.676Z,90.16
2017-09-29T12:21:58.651Z,90.16
2017-09-29T12:22:58.634Z,89.86
2017-09-29T12:23:58.613Z,90.16
2017-09-29T12:24:58.598Z,90.06
2017-09-29T12:25:58.576Z,89.67
2017-09-29T12:26:58.560Z,89.77
2017-09-29T12:27:58.549Z,89.77
2017-09-29T12:28:58.262Z,89.72
2017-09-29T12:29:58.514Z,89.81
2017-09-29T12:30:58.484Z,90
2017-09-29T12:31:58.474Z,89.23
2017-09-29T12:32:58.459Z,89.91
2017-09-29T12:33:58.434Z,89.53
2017-09-29T12:34:58.421Z,89.72
2017-09-29T12:35:58.400Z,89.37
2017-09-29T12:36:58.379Z,89.76
2017-09-29T12:37:58.358Z,89.18
2017-09-29T12:38:58.337Z,89.28
2017-09-29T12:39:58.316Z,88.99
2017-09-29T12:40:58.312Z,88.99
2017-09-29T12:41:58.283Z,89.09
2017-09-29T12:42:58.263Z,88.93
2017-09-29T12:43:58.263Z,88.75
2017-09-29T12:44:57.928Z,88.84
2017-09-29T12:45:58.222Z,88.36
2017-09-29T12:46:58.200Z,88.17
2017-09-29T12:47:58.225Z,88.36
2017-09-29T12:48:58.166Z,88.26
2017-09-29T12:49:58.132Z,88.36
2017-09-29T12:50:58.119Z,88.65
2017-09-29T12:51:58.096Z,88.26
2017-09-29T12:52:58.084Z,88.22
2017-09-29T12:53:58.058Z,88.89
2017-09-29T12:54:58.045Z,88.31